Time;durP1;ratioP1;P1;durP2;ratioP2;P2;SDS_P1;SDS_P2;PMS_P1;PMS_P2;Temp;Humidity;BMP_temperature;BMP_pressure;BME280_temperature;BME280_humidity;BME280_pressure;Samples;Min_cycle;Max_cycle;Signal;HPM_P1;HPM_P2
2021/10/18 00:00:30;;;;;;;8.30;2.10;;;31.80;18.20;;;;;;4966719;28;20185;-65
2021/10/18 00:02:56;;;;;;;16.38;2.35;;;31.80;18.10;;;;;;4952960;28;20074;-68
2021/10/18 00:05:23;;;;;;;11.60;2.17;;;31.60;18.20;;;;;;4968095;28;20082;-68
2021/10/18 00:07:49;;;;;;;18.48;3.05;;;31.60;18.60;;;;;;4952245;28;20089;-69
2021/10/18 00:10:16;;;;;;;11.60;2.08;;;31.60;18.70;;;;;;4951937;28;20070;-70
2021/10/18 00:12:43;;;;;;;14.23;2.10;;;31.60;18.40;;;;;;4967937;28;20203;-68
2021/10/18 00:15:11;;;;;;;11.48;3.05;;;31.50;18.00;;;;;;4951949;28;20074;-70
2021/10/18 00:17:37;;;;;;;17.60;1.90;;;31.40;18.00;;;;;;4969871;28;20082;-67
2021/10/18 00:20:06;;;;;;;15.60;2.10;;;31.40;18.50;;;;;;4968168;28;20078;-68
2021/10/18 00:22:33;;;;;;;14.82;3.22;;;31.30;19.60;;;;;;4974508;28;20094;-66
2021/10/18 00:24:59;;;;;;;12.25;3.03;;;31.20;20.70;;;;;;4965808;28;20074;-70
2021/10/18 00:27:25;;;;;;;14.77;3.40;;;31.10;21.40;;;;;;4950657;28;20095;-70
2021/10/18 00:29:52;;;;;;;14.93;2.88;;;31.00;21.80;;;;;;4949741;28;20095;-71
2021/10/18 00:32:18;;;;;;;13.63;2.63;;;31.00;22.10;;;;;;4950474;28;20133;-71
2021/10/18 00:34:45;;;;;;;16.45;3.08;;;30.80;22.30;;;;;;4968367;28;20074;-67
2021/10/18 00:37:11;;;;;;;15.82;3.20;;;30.70;22.60;;;;;;4952548;28;20110;-68
2021/10/18 00:39:37;;;;;;;19.23;3.83;;;30.60;22.90;;;;;;4967559;28;20096;-71
2021/10/18 00:42:04;;;;;;;13.82;3.67;;;30.50;23.20;;;;;;4967752;28;20146;-69
2021/10/18 00:44:34;;;;;;;18.70;4.50;;;30.40;23.40;;;;;;4967730;28;20086;-70
2021/10/18 00:47:01;;;;;;;48.95;6.88;;;30.20;24.10;;;;;;4952578;28;20086;-68
2021/10/18 00:49:29;;;;;;;22.40;4.93;;;30.20;24.20;;;;;;4965810;28;20526;-66
2021/10/18 00:51:56;;;;;;;29.42;4.45;;;30.20;24.20;;;;;;4966208;28;20647;-68
2021/10/18 00:54:23;;;;;;;27.95;4.03;;;30.10;24.30;;;;;;4949270;28;20090;-69
2021/10/18 00:56:50;;;;;;;23.73;3.72;;;30.00;24.70;;;;;;4952121;28;20086;-70
2021/10/18 00:59:17;;;;;;;25.27;3.60;;;29.90;25.30;;;;;;4968470;28;20126;-67
2021/10/18 01:01:44;;;;;;;27.02;4.13;;;29.60;25.80;;;;;;4949366;28;20162;-65
2021/10/18 01:04:11;;;;;;;23.67;3.80;;;29.40;25.60;;;;;;4965113;28;20078;-68
2021/10/18 01:06:37;;;;;;;28.95;3.85;;;29.40;25.50;;;;;;4951689;28;20130;-69
2021/10/18 01:09:04;;;;;;;14.98;2.92;;;29.20;24.10;;;;;;4966457;28;20606;-67
2021/10/18 01:11:30;;;;;;;8.48;2.47;;;29.10;22.90;;;;;;4953278;28;20124;-67
2021/10/18 01:13:57;;;;;;;9.77;2.58;;;29.00;19.90;;;;;;4965498;28;20081;-67
2021/10/18 01:16:23;;;;;;;13.50;3.17;;;28.90;20.00;;;;;;4949198;28;20627;-69
2021/10/18 01:18:49;;;;;;;22.35;2.63;;;28.90;19.90;;;;;;4935745;28;20237;-70
2021/10/18 01:21:16;;;;;;;10.23;2.47;;;28.80;19.90;;;;;;4954707;28;20087;-69
2021/10/18 01:23:42;;;;;;;17.15;2.78;;;28.70;19.90;;;;;;4955362;28;20092;-68
2021/10/18 01:26:08;;;;;;;14.93;2.58;;;28.60;19.70;;;;;;4968592;28;20176;-70
2021/10/18 01:28:35;;;;;;;8.85;2.50;;;28.60;20.00;;;;;;4968747;28;20102;-70
2021/10/18 01:31:01;;;;;;;17.70;3.08;;;28.50;20.00;;;;;;4970392;28;20129;-68
2021/10/18 01:33:31;;;;;;;17.08;3.10;;;28.30;20.10;;;;;;4959800;28;20071;-66
2021/10/18 01:35:58;;;;;;;15.52;2.38;;;28.20;20.60;;;;;;4957230;28;20094;-69
2021/10/18 01:38:24;;;;;;;15.20;3.30;;;28.00;20.60;;;;;;4973635;28;20426;-66
2021/10/18 01:40:50;;;;;;;11.02;3.03;;;28.00;20.30;;;;;;4957033;28;20616;-70
2021/10/18 01:43:17;;;;;;;12.80;3.00;;;28.10;20.10;;;;;;4971451;28;20075;-70
2021/10/18 01:45:43;;;;;;;11.40;2.97;;;28.10;20.10;;;;;;4974374;28;20096;-67
2021/10/18 01:48:10;;;;;;;7.55;2.80;;;28.10;20.00;;;;;;4974334;28;20081;-66
2021/10/18 01:50:36;;;;;;;6.97;2.30;;;28.10;20.70;;;;;;4973475;28;20078;-67
2021/10/18 01:53:05;;;;;;;11.68;2.50;;;28.00;20.50;;;;;;4969699;28;20596;-69
2021/10/18 01:55:33;;;;;;;8.18;2.17;;;27.80;20.90;;;;;;4964604;28;20086;-69
2021/10/18 01:58:00;;;;;;;10.35;2.55;;;27.70;21.00;;;;;;4956602;28;20132;-67
2021/10/18 02:00:26;;;;;;;8.95;2.50;;;27.60;20.90;;;;;;4969202;28;20083;-70
2021/10/18 02:02:53;;;;;;;14.98;2.72;;;27.70;20.70;;;;;;4954938;28;21258;-70
2021/10/18 02:05:19;;;;;;;9.43;2.60;;;27.70;20.70;;;;;;4954279;28;20179;-70
2021/10/18 02:07:45;;;;;;;20.30;2.40;;;27.70;20.80;;;;;;4955544;28;20076;-68
2021/10/18 02:10:13;;;;;;;14.13;2.50;;;27.60;21.40;;;;;;4954932;28;20162;-69
2021/10/18 02:12:40;;;;;;;18.63;3.22;;;27.50;21.30;;;;;;4968841;28;20092;-67
2021/10/18 02:15:08;;;;;;;15.55;2.47;;;27.40;21.50;;;;;;4971069;28;20071;-68
2021/10/18 02:17:35;;;;;;;9.05;2.00;;;27.40;21.50;;;;;;4952261;28;20103;-66
2021/10/18 02:20:04;;;;;;;8.95;2.83;;;27.30;21.50;;;;;;4969793;28;20110;-64
2021/10/18 02:22:30;;;;;;;10.57;2.40;;;27.20;22.10;;;;;;4968114;28;20075;-70
2021/10/18 02:24:57;;;;;;;10.63;2.83;;;27.10;22.20;;;;;;4970840;28;20522;-67
2021/10/18 02:27:23;;;;;;;9.23;2.30;;;27.10;22.10;;;;;;4955343;28;20084;-68
2021/10/18 02:29:50;;;;;;;6.78;2.22;;;27.00;22.10;;;;;;4954655;28;20099;-68
2021/10/18 02:32:18;;;;;;;10.30;1.90;;;26.90;21.90;;;;;;4967974;28;20080;-67
2021/10/18 02:34:44;;;;;;;7.70;2.10;;;27.00;22.20;;;;;;4954026;28;20176;-69
2021/10/18 02:37:11;;;;;;;8.82;2.30;;;26.90;22.20;;;;;;4952198;28;20082;-67
2021/10/18 02:39:37;;;;;;;13.65;2.15;;;26.80;22.70;;;;;;4953300;28;20118;-66
2021/10/18 02:42:03;;;;;;;13.32;2.53;;;26.80;22.80;;;;;;4968231;28;20146;-68
2021/10/18 02:44:30;;;;;;;13.63;2.58;;;26.70;22.80;;;;;;4953675;28;20079;-67
2021/10/18 02:46:56;;;;;;;14.98;2.78;;;26.60;23.00;;;;;;4952470;28;20096;-66
2021/10/18 02:49:23;;;;;;;13.20;3.13;;;26.40;23.50;;;;;;4953688;28;20550;-68
2021/10/18 02:51:50;;;;;;;23.60;2.85;;;26.30;23.60;;;;;;4953188;28;20072;-68
2021/10/18 02:54:17;;;;;;;13.73;2.65;;;26.10;23.80;;;;;;4967806;28;20082;-68
2021/10/18 02:56:43;;;;;;;12.63;2.83;;;26.10;23.50;;;;;;4952889;28;20072;-66
2021/10/18 02:59:10;;;;;;;12.98;2.80;;;26.00;23.90;;;;;;4968548;28;20087;-69
2021/10/18 03:01:36;;;;;;;10.00;2.28;;;25.90;24.00;;;;;;4951857;28;20522;-67
2021/10/18 03:04:03;;;;;;;18.58;3.33;;;25.90;24.20;;;;;;4951839;28;21483;-69
2021/10/18 03:06:29;;;;;;;19.23;3.13;;;25.80;24.40;;;;;;4951103;28;20587;-68
2021/10/18 03:08:56;;;;;;;16.88;3.00;;;25.70;24.40;;;;;;4968034;28;20135;-66
2021/10/18 03:11:22;;;;;;;17.48;3.88;;;25.70;24.50;;;;;;4968094;28;20082;-65
2021/10/18 03:13:48;;;;;;;22.15;3.75;;;25.70;24.80;;;;;;4967174;28;20407;-65
2021/10/18 03:16:15;;;;;;;21.88;3.65;;;25.70;25.20;;;;;;4953039;28;20087;-68
2021/10/18 03:18:41;;;;;;;13.32;3.15;;;25.60;25.30;;;;;;4951057;28;20086;-65
2021/10/18 03:21:08;;;;;;;21.75;3.78;;;25.60;25.20;;;;;;4949453;28;20150;-63
2021/10/18 03:23:34;;;;;;;11.18;3.00;;;25.50;25.30;;;;;;4950841;28;20190;-68
2021/10/18 03:26:01;;;;;;;22.65;3.80;;;25.50;25.50;;;;;;4958727;28;20092;-64
2021/10/18 03:28:27;;;;;;;20.13;3.00;;;25.40;25.60;;;;;;4956780;28;20086;-66
2021/10/18 03:30:54;;;;;;;18.33;3.20;;;25.30;25.60;;;;;;4969491;28;20154;-65
2021/10/18 03:33:20;;;;;;;19.98;3.05;;;25.20;25.90;;;;;;4951743;28;20175;-66
2021/10/18 03:35:49;;;;;;;18.05;3.40;;;25.20;26.20;;;;;;4967333;28;20075;-66
2021/10/18 03:38:16;;;;;;;16.27;2.88;;;25.10;26.40;;;;;;4951031;28;20119;-64
2021/10/18 03:40:43;;;;;;;15.32;2.90;;;25.10;26.50;;;;;;4952568;28;20075;-68
2021/10/18 03:43:09;;;;;;;7.75;2.65;;;25.00;26.60;;;;;;4966670;28;20162;-66
2021/10/18 03:45:35;;;;;;;14.80;3.00;;;25.00;26.60;;;;;;4952597;28;20110;-64
2021/10/18 03:48:02;;;;;;;12.38;2.78;;;24.90;26.90;;;;;;4949134;28;20154;-64
2021/10/18 03:50:30;;;;;;;8.55;2.97;;;24.90;26.60;;;;;;4950494;28;20100;-65
2021/10/18 03:52:57;;;;;;;9.85;2.45;;;24.90;27.00;;;;;;4956337;28;20088;-63
2021/10/18 03:55:23;;;;;;;14.63;2.47;;;24.80;26.70;;;;;;4950052;28;20159;-63
2021/10/18 03:57:50;;;;;;;15.13;2.00;;;24.70;26.90;;;;;;4953361;28;20561;-68
2021/10/18 04:00:16;;;;;;;10.23;2.35;;;24.70;26.90;;;;;;4952605;28;20087;-68
2021/10/18 04:02:42;;;;;;;11.18;2.47;;;24.60;26.80;;;;;;4967859;28;20091;-68
2021/10/18 04:05:09;;;;;;;10.43;2.40;;;24.50;27.00;;;;;;4951679;28;20447;-68
2021/10/18 04:07:38;;;;;;;10.35;2.08;;;24.10;26.60;;;;;;4967549;28;20087;-69
2021/10/18 04:10:06;;;;;;;8.40;1.75;;;24.30;46.70;;;;;;4968130;28;20763;-69
2021/10/18 04:12:33;;;;;;;15.35;2.17;;;24.00;39.10;;;;;;4952956;28;21009;-68
2021/10/18 04:14:59;;;;;;;9.10;2.40;;;24.30;27.10;;;;;;4968425;28;20119;-68
2021/10/18 04:17:25;;;;;;;16.50;2.20;;;24.30;27.10;;;;;;4953104;28;20080;-68
2021/10/18 04:19:52;;;;;;;15.68;2.80;;;24.30;27.20;;;;;;4935958;28;20075;-66
2021/10/18 04:22:18;;;;;;;28.33;2.40;;;24.30;27.20;;;;;;4935317;28;20075;-69
2021/10/18 04:24:45;;;;;;;24.63;2.45;;;24.30;27.20;;;;;;4952953;28;20505;-69
2021/10/18 04:27:11;;;;;;;13.98;2.70;;;24.30;27.30;;;;;;4952661;28;20130;-66
2021/10/18 04:29:37;;;;;;;17.15;2.30;;;24.20;27.20;;;;;;4960058;28;20066;-66
2021/10/18 04:32:04;;;;;;;16.73;2.70;;;24.20;26.60;;;;;;4968246;28;20118;-66
2021/10/18 04:34:31;;;;;;;14.55;2.50;;;24.20;26.90;;;;;;4967281;28;20166;-67
2021/10/18 04:36:57;;;;;;;22.63;2.80;;;24.20;27.00;;;;;;4967050;28;20458;-68
2021/10/18 04:39:24;;;;;;;22.60;2.90;;;24.20;27.00;;;;;;4951243;28;20466;-67
2021/10/18 04:41:50;;;;;;;23.10;3.47;;;24.30;27.00;;;;;;4967226;28;20095;-64
2021/10/18 04:44:17;;;;;;;49.95;4.18;;;24.20;26.90;;;;;;4966882;28;20079;-66
2021/10/18 04:46:43;;;;;;;13.15;2.70;;;24.20;27.00;;;;;;4962976;28;20103;-67
2021/10/18 04:49:11;;;;;;;31.75;3.35;;;24.20;27.00;;;;;;4967695;28;20469;-66
2021/10/18 04:51:37;;;;;;;18.33;2.60;;;24.10;27.40;;;;;;4966777;28;20080;-64
2021/10/18 04:54:04;;;;;;;19.88;2.95;;;24.10;27.40;;;;;;4955515;28;20135;-67
2021/10/18 04:56:30;;;;;;;19.38;3.47;;;24.10;26.80;;;;;;4951432;28;20079;-66
2021/10/18 04:58:57;;;;;;;21.60;4.10;;;24.10;26.80;;;;;;4952174;28;20150;-67
2021/10/18 05:01:24;;;;;;;18.75;2.97;;;24.10;26.80;;;;;;4952521;28;20531;-67
2021/10/18 05:03:50;;;;;;;14.35;2.85;;;24.10;26.80;;;;;;4952613;28;20562;-66
2021/10/18 05:06:16;;;;;;;11.90;2.15;;;24.10;26.80;;;;;;4967759;28;20092;-66
2021/10/18 05:08:43;;;;;;;13.95;2.50;;;24.00;26.50;;;;;;4953081;28;20079;-67
2021/10/18 05:11:09;;;;;;;10.82;2.25;;;24.00;26.50;;;;;;4950942;28;20095;-68
2021/10/18 05:13:35;;;;;;;23.90;3.08;;;24.00;26.40;;;;;;4967610;28;20167;-67
2021/10/18 05:16:02;;;;;;;21.83;2.95;;;24.00;26.50;;;;;;4967568;28;20415;-69
2021/10/18 05:18:28;;;;;;;22.00;2.60;;;23.90;26.80;;;;;;4966883;28;20127;-66
2021/10/18 05:20:55;;;;;;;25.70;3.15;;;23.90;26.90;;;;;;4951606;28;20542;-72
2021/10/18 05:23:21;;;;;;;19.30;2.80;;;23.80;27.20;;;;;;4967050;28;20091;-67
2021/10/18 05:25:47;;;;;;;15.10;3.00;;;23.70;27.80;;;;;;4966968;28;20096;-68
2021/10/18 05:28:14;;;;;;;30.65;4.82;;;23.70;28.00;;;;;;4952801;28;20083;-68
2021/10/18 05:30:40;;;;;;;30.58;5.20;;;23.50;28.40;;;;;;4951907;28;20181;-67
2021/10/18 05:33:07;;;;;;;46.72;6.25;;;23.50;28.60;;;;;;4952520;28;20083;-65
2021/10/18 05:35:34;;;;;;;39.42;6.57;;;23.50;28.40;;;;;;4950961;28;20076;-67
2021/10/18 05:38:01;;;;;;;36.38;6.00;;;23.50;28.30;;;;;;4951969;28;20078;-67
2021/10/18 05:40:28;;;;;;;34.90;7.30;;;23.40;28.50;;;;;;4951570;28;20075;-68
2021/10/18 05:42:54;;;;;;;58.90;7.93;;;23.20;28.80;;;;;;4951688;28;20080;-65
2021/10/18 05:45:22;;;;;;;56.53;8.20;;;23.10;29.10;;;;;;4951916;28;20100;-65
2021/10/18 05:47:59;;;;;;;47.78;8.77;;;23.10;29.90;;;;;;4950018;28;20076;-66
2021/10/18 05:50:31;;;;;;;42.00;9.00;;;23.10;30.00;;;;;;4965860;28;20090;-65
2021/10/18 05:52:57;;;;;;;51.15;9.52;;;22.90;30.40;;;;;;4966744;28;20099;-67
2021/10/18 05:55:24;;;;;;;59.30;10.30;;;22.70;30.10;;;;;;4950520;28;20115;-65
2021/10/18 05:57:54;;;;;;;60.90;12.05;;;22.60;31.20;;;;;;4949815;28;20076;-66
2021/10/18 06:00:22;;;;;;;97.47;13.98;;;22.50;31.00;;;;;;4950038;28;20118;-64
2021/10/18 06:02:49;;;;;;;67.93;12.68;;;22.40;31.00;;;;;;4950664;28;20094;-65
2021/10/18 06:05:16;;;;;;;80.90;14.88;;;22.50;31.10;;;;;;4934740;28;20076;-68
2021/10/18 06:07:42;;;;;;;94.00;14.48;;;22.50;31.00;;;;;;4953378;28;20473;-65
2021/10/18 06:10:10;;;;;;;89.75;15.02;;;22.40;31.20;;;;;;4953721;28;20075;-66
2021/10/18 06:12:38;;;;;;;100.47;16.88;;;22.40;31.10;;;;;;4936403;28;20091;-67
2021/10/18 06:15:06;;;;;;;89.03;17.00;;;22.50;31.00;;;;;;4953731;28;20430;-66
2021/10/18 06:17:33;;;;;;;92.40;16.67;;;22.50;30.90;;;;;;4937148;28;20084;-65
2021/10/18 06:19:59;;;;;;;99.50;15.25;;;22.50;31.00;;;;;;4937373;28;20076;-63
2021/10/18 06:22:26;;;;;;;98.95;16.17;;;22.40;31.20;;;;;;4950678;28;20449;-67
2021/10/18 06:24:53;;;;;;;101.20;17.77;;;22.30;31.40;;;;;;4952304;28;20084;-66
2021/10/18 06:27:21;;;;;;;86.32;15.82;;;22.30;31.50;;;;;;4952411;28;20083;-63
2021/10/18 06:29:47;;;;;;;80.82;16.58;;;22.20;31.60;;;;;;4953667;28;20490;-66
2021/10/18 06:32:13;;;;;;;;;;;22.20;31.80;;;;;;4953969;28;20076;-65
2021/10/18 06:34:39;;;;;;;80.35;17.70;;;22.20;32.20;;;;;;4953603;28;19959;-65
2021/10/18 06:37:06;;;;;;;;;;;22.20;32.40;;;;;;4952442;28;20090;-68
2021/10/18 06:39:32;;;;;;;85.80;18.88;;;22.10;32.70;;;;;;4968392;28;20045;-67
2021/10/18 06:41:58;;;;;;;62.65;16.42;;;21.90;33.10;;;;;;4953099;28;20460;-64
2021/10/18 06:44:25;;;;;;;76.28;16.42;;;21.90;33.50;;;;;;4952252;28;20079;-64
2021/10/18 06:46:51;;;;;;;60.13;16.85;;;21.60;34.20;;;;;;4952619;28;20542;-68
2021/10/18 06:49:17;;;;;;;;;;;21.50;34.40;;;;;;4951102;28;20456;-66
2021/10/18 06:51:50;;;;;;;72.63;15.38;;;21.50;34.60;;;;;;4952540;28;19966;-67
2021/10/18 06:54:17;;;;;;;82.00;15.32;;;21.50;34.70;;;;;;4953371;28;20080;-67
2021/10/18 06:56:46;;;;;;;52.72;14.70;;;21.70;34.60;;;;;;4952784;28;20514;-67
2021/10/18 06:59:13;;;;;;;69.88;14.60;;;21.70;34.70;;;;;;4953025;28;20558;-66
2021/10/18 07:01:40;;;;;;;65.28;14.43;;;21.70;35.50;;;;;;4952138;28;20079;-67
2021/10/18 07:04:08;;;;;;;57.53;15.10;;;21.10;48.80;;;;;;4954481;28;20210;-68
2021/10/18 07:06:36;;;;;;;52.50;14.23;;;21.50;55.80;;;;;;4953522;28;20119;-66
2021/10/18 07:09:03;;;;;;;66.68;14.07;;;21.40;36.20;;;;;;4951640;28;20103;-65
2021/10/18 07:11:29;;;;;;;42.63;11.70;;;21.40;46.90;;;;;;4967173;28;20068;-66
2021/10/18 07:13:56;;;;;;;47.55;13.35;;;21.40;41.40;;;;;;4951155;28;20079;-66
2021/10/18 07:16:22;;;;;;;;;;;21.30;36.80;;;;;;4936979;28;20150;-67
2021/10/18 07:18:48;;;;;;;47.92;11.93;;;21.30;36.80;;;;;;4936396;28;20476;-65
2021/10/18 07:21:14;;;;;;;;;;;21.20;37.00;;;;;;4952932;28;20528;-65
2021/10/18 07:23:40;;;;;;;63.78;12.20;;;21.20;54.80;;;;;;4966946;28;19959;-66
2021/10/18 07:26:08;;;;;;;69.07;14.02;;;21.10;37.20;;;;;;4952170;28;20092;-68
2021/10/18 07:28:36;;;;;;;60.75;12.93;;;21.20;37.40;;;;;;4952444;28;20068;-64
2021/10/18 07:31:02;;;;;;;63.22;12.48;;;21.00;37.70;;;;;;4952401;28;20099;-69
2021/10/18 07:33:28;;;;;;;63.90;13.13;;;20.90;37.80;;;;;;4950557;28;20072;-63
2021/10/18 07:35:56;;;;;;;55.13;12.57;;;20.80;38.00;;;;;;4936100;28;20553;-64
2021/10/18 07:38:24;;;;;;;59.00;11.95;;;20.80;38.20;;;;;;4951873;28;20104;-65
2021/10/18 07:40:51;;;;;;;54.83;13.50;;;20.60;38.50;;;;;;4966653;28;20144;-66
2021/10/18 07:43:18;;;;;;;66.32;12.57;;;20.50;39.10;;;;;;4951417;28;20076;-66
2021/10/18 07:45:44;;;;;;;54.17;12.57;;;20.60;38.80;;;;;;4952149;28;20099;-65
2021/10/18 07:48:11;;;;;;;47.85;12.60;;;20.60;49.50;;;;;;4952057;28;20099;-66
2021/10/18 07:50:37;;;;;;;48.97;12.20;;;21.00;61.90;;;;;;4950073;28;20453;-66
2021/10/18 07:53:03;;;;;;;53.92;10.98;;;20.80;38.30;;;;;;4951936;28;20090;-64
2021/10/18 07:55:33;;;;;;;;;;;20.80;39.20;;;;;;4952266;28;20151;-65
2021/10/18 07:58:00;;;;;;;52.88;12.25;;;20.70;38.90;;;;;;4952986;28;19958;-65
2021/10/18 08:00:26;;;;;;;48.22;12.95;;;20.60;39.20;;;;;;4952116;28;20127;-65
2021/10/18 08:02:52;;;;;;;;;;;20.50;39.40;;;;;;4951571;28;20079;-66
2021/10/18 08:05:19;;;;;;;56.72;14.60;;;20.30;52.10;;;;;;4965445;28;19981;-64
2021/10/18 08:07:49;;;;;;;42.85;11.88;;;20.60;39.10;;;;;;4951268;28;20088;-67
2021/10/18 08:10:26;;;;;;;47.72;13.13;;;20.40;57.30;;;;;;4965580;28;20548;-68
2021/10/18 08:12:53;;;;;;;53.72;14.48;;;20.70;38.80;;;;;;4951419;28;20514;-61
2021/10/18 08:15:20;;;;;;;42.88;12.57;;;21.10;54.10;;;;;;4951000;28;20172;-68
2021/10/18 08:17:46;;;;;;;48.05;13.45;;;20.70;39.20;;;;;;4950184;28;20130;-65
2021/10/18 08:20:13;;;;;;;41.65;12.93;;;20.70;39.20;;;;;;4948966;28;20072;-65
2021/10/18 08:22:40;;;;;;;54.80;12.88;;;20.70;39.60;;;;;;4953011;28;20122;-68
2021/10/18 08:25:07;;;;;;;37.78;11.55;;;20.60;39.30;;;;;;4950007;28;20086;-65
2021/10/18 08:27:34;;;;;;;46.20;11.48;;;20.50;39.50;;;;;;4950594;28;20474;-67
2021/10/18 08:30:00;;;;;;;50.75;11.15;;;20.50;39.30;;;;;;4952592;28;20087;-66
2021/10/18 08:32:27;;;;;;;43.03;11.48;;;20.40;39.30;;;;;;4949907;28;20466;-65
2021/10/18 08:34:53;;;;;;;38.03;11.52;;;20.30;39.70;;;;;;4950078;28;20547;-65
2021/10/18 08:37:20;;;;;;;36.95;9.88;;;20.30;40.20;;;;;;4950615;28;20080;-64
2021/10/18 08:42:23;;;;;;;41.85;11.05;;;20.10;40.50;;;;;;4950634;28;20241;-65
2021/10/18 08:44:50;;;;;;;41.95;11.85;;;20.20;40.60;;;;;;4951123;28;20083;-65
2021/10/18 08:47:16;;;;;;;39.67;10.57;;;20.10;40.60;;;;;;4949061;28;20084;-65
2021/10/18 08:49:43;;;;;;;41.10;10.65;;;20.20;40.80;;;;;;4952185;28;20075;-65
2021/10/18 08:52:11;;;;;;;53.65;11.27;;;20.10;40.60;;;;;;4934370;28;20082;-66
2021/10/18 08:54:38;;;;;;;48.42;10.95;;;20.10;40.40;;;;;;4965791;28;20067;-66
2021/10/18 08:57:04;;;;;;;50.55;11.38;;;20.10;40.20;;;;;;4933635;28;20106;-67
2021/10/18 08:59:30;;;;;;;41.22;10.57;;;20.10;40.10;;;;;;4950152;28;20083;-66
2021/10/18 09:01:57;;;;;;;;;;;20.10;40.80;;;;;;4948342;28;20170;-64
2021/10/18 09:04:28;;;;;;;39.95;10.43;;;20.00;40.00;;;;;;4933685;28;19967;-66
2021/10/18 09:07:01;;;;;;;38.60;9.48;;;20.10;39.70;;;;;;4947110;28;20091;-64
2021/10/18 09:09:43;;;;;;;44.50;9.77;;;20.00;39.70;;;;;;4948673;28;20436;-67
2021/10/18 09:12:26;;;;;;;32.80;8.77;;;20.00;39.70;;;;;;4934847;28;20533;-65
2021/10/18 09:14:54;;;;;;;33.20;8.93;;;20.00;39.80;;;;;;4942908;28;20134;-64
2021/10/18 09:17:34;;;;;;;36.75;9.27;;;19.90;40.10;;;;;;4933720;28;20076;-65
2021/10/18 09:20:23;;;;;;;30.60;8.27;;;19.90;40.00;;;;;;4949714;28;20094;-64
2021/10/18 09:22:51;;;;;;;27.08;8.02;;;19.90;39.70;;;;;;4964379;28;20099;-64
2021/10/18 09:25:35;;;;;;;31.27;7.45;;;19.90;39.30;;;;;;4964914;28;20146;-65
2021/10/18 09:28:16;;;;;;;24.55;6.57;;;19.80;39.30;;;;;;4917182;28;20094;-64
2021/10/18 09:30:46;;;;;;;29.38;7.30;;;19.80;39.30;;;;;;4949452;28;20174;-64
2021/10/18 09:33:32;;;;;;;31.77;7.35;;;19.80;39.60;;;;;;4965042;28;20087;-66
2021/10/18 09:36:01;;;;;;;24.20;6.32;;;19.80;39.70;;;;;;4950530;28;20406;-64
2021/10/18 09:38:28;;;;;;;30.52;7.28;;;19.70;40.00;;;;;;4949155;28;20658;-64
2021/10/18 09:41:00;;;;;;;25.10;7.10;;;19.70;40.40;;;;;;4964718;28;20454;-65
2021/10/18 09:46:20;;;;;;;21.80;6.50;;;19.70;40.70;;;;;;4953015;28;20629;-64
2021/10/18 10:54:03;;;;;;;15.43;4.43;;;19.60;42.60;;;;;;4952177;28;20522;-63
2021/10/18 10:56:23;;;;;;;16.92;4.75;;;19.60;42.90;;;;;;4948173;28;20091;-64
2021/10/18 10:58:57;;;;;;;21.58;5.55;;;19.60;43.30;;;;;;4952060;28;20105;-64
2021/10/18 11:01:50;;;;;;;20.85;5.40;;;19.50;43.60;;;;;;4952172;28;20115;-63
2021/10/18 11:04:32;;;;;;;18.30;5.22;;;19.50;43.90;;;;;;4969534;28;20155;-65
2021/10/18 11:06:59;;;;;;;16.35;4.95;;;19.50;44.10;;;;;;4951959;28;20091;-64
2021/10/18 11:09:54;;;;;;;21.95;5.03;;;19.40;44.20;;;;;;4953662;28;20542;-63
2021/10/18 11:12:34;;;;;;;28.13;5.20;;;19.40;44.40;;;;;;4953871;28;20083;-64
2021/10/18 11:15:13;;;;;;;18.95;5.35;;;19.30;44.60;;;;;;4952956;28;20115;-65
2021/10/18 11:17:51;;;;;;;24.17;5.68;;;19.40;44.80;;;;;;4936322;28;20134;-64
2021/10/18 11:20:26;;;;;;;17.15;5.57;;;19.40;44.90;;;;;;4937489;28;20083;-66
2021/10/18 11:22:56;;;;;;;22.80;5.22;;;19.30;45.00;;;;;;4965232;28;20102;-65
2021/10/18 11:25:29;;;;;;;22.08;5.88;;;19.30;45.20;;;;;;4950475;28;20518;-64
2021/10/18 11:28:01;;;;;;;16.38;5.05;;;19.20;45.40;;;;;;4934223;28;20123;-63
2021/10/18 11:30:30;;;;;;;14.82;4.75;;;19.20;45.60;;;;;;4951058;28;20612;-66
2021/10/18 11:33:07;;;;;;;19.00;5.35;;;19.00;45.90;;;;;;4954266;28;20107;-66
2021/10/18 11:35:34;;;;;;;16.73;5.38;;;19.00;46.30;;;;;;4937231;28;20080;-66
2021/10/18 11:38:07;;;;;;;25.92;4.93;;;19.10;46.20;;;;;;4950561;28;20482;-65
2021/10/18 11:40:38;;;;;;;20.27;5.18;;;19.00;46.60;;;;;;4950231;28;20090;-65
2021/10/18 11:43:08;;;;;;;21.48;5.07;;;19.00;46.40;;;;;;4949119;28;20983;-64
2021/10/18 11:45:37;;;;;;;19.38;4.93;;;19.00;46.30;;;;;;4966184;28;20080;-64
2021/10/18 11:48:16;;;;;;;19.00;5.38;;;19.00;46.40;;;;;;4950921;28;20090;-64
2021/10/18 11:50:47;;;;;;;22.75;5.28;;;19.00;46.60;;;;;;4950535;28;20122;-65
2021/10/18 11:53:18;;;;;;;16.15;4.80;;;18.80;46.60;;;;;;4951352;28;20068;-64
2021/10/18 11:55:53;;;;;;;22.08;5.35;;;18.80;46.80;;;;;;4949415;28;20084;-66
2021/10/18 11:58:25;;;;;;;30.50;6.28;;;18.70;46.30;;;;;;4965661;28;20244;-64
2021/10/18 12:01:02;;;;;;;29.63;6.32;;;18.60;46.50;;;;;;4935687;28;20445;-64
2021/10/18 12:03:30;;;;;;;22.80;5.68;;;18.80;46.70;;;;;;4950970;28;20072;-64
2021/10/18 12:05:59;;;;;;;25.67;6.63;;;18.60;46.70;;;;;;4934511;28;20462;-67
2021/10/18 12:08:34;;;;;;;22.83;5.82;;;18.60;47.00;;;;;;4949568;28;20478;-64
2021/10/18 12:11:08;;;;;;;28.88;6.47;;;18.50;47.30;;;;;;4965116;28;20071;-65
2021/10/18 12:13:36;;;;;;;20.17;6.10;;;18.40;47.00;;;;;;4935818;28;20102;-63
2021/10/18 12:16:06;;;;;;;21.48;5.22;;;18.40;47.40;;;;;;4950750;28;20555;-63
2021/10/18 12:19:01;;;;;;;25.35;6.13;;;18.50;47.20;;;;;;4950785;28;20545;-63
2021/10/18 12:21:40;;;;;;;30.13;6.57;;;18.50;47.10;;;;;;4948808;28;20094;-66
2021/10/18 12:24:16;;;;;;;26.77;6.15;;;18.60;47.20;;;;;;4948153;28;20588;-63
2021/10/18 12:26:46;;;;;;;22.85;6.65;;;18.60;47.40;;;;;;4965059;28;20457;-63
2021/10/18 12:29:20;;;;;;;27.75;6.03;;;18.60;47.30;;;;;;4965352;28;20076;-64
2021/10/18 12:31:48;;;;;;;30.60;6.80;;;18.60;47.50;;;;;;4951084;28;20119;-63
2021/10/18 12:34:23;;;;;;;32.40;6.88;;;18.60;47.40;;;;;;4951236;28;20075;-62
2021/10/18 12:36:51;;;;;;;27.17;7.45;;;18.50;47.50;;;;;;4950152;28;20573;-61
2021/10/18 12:39:47;;;;;;;30.38;7.38;;;18.50;47.90;;;;;;4959687;28;20083;-64
2021/10/18 12:42:27;;;;;;;26.95;6.28;;;18.40;47.90;;;;;;4949005;28;20079;-64
2021/10/18 12:45:19;;;;;;;27.95;6.45;;;18.30;48.30;;;;;;4960916;28;20269;-63
2021/10/18 12:47:50;;;;;;;22.10;6.10;;;18.20;48.30;;;;;;4948458;28;20155;-62
2021/10/18 12:50:22;;;;;;;21.55;5.85;;;18.20;48.20;;;;;;4963997;28;20112;-65
2021/10/18 12:53:02;;;;;;;23.05;6.53;;;18.20;48.20;;;;;;4950464;28;20159;-64
2021/10/18 12:55:33;;;;;;;23.98;6.43;;;18.20;48.30;;;;;;4949183;28;20175;-65
2021/10/18 12:58:08;;;;;;;29.75;6.93;;;18.20;48.10;;;;;;4964143;28;20099;-63
2021/10/18 13:00:39;;;;;;;32.83;5.45;;;18.20;47.90;;;;;;4934919;28;20079;-65
2021/10/18 13:03:08;;;;;;;21.33;6.00;;;18.20;47.70;;;;;;4948914;28;20143;-63
2021/10/18 13:05:40;;;;;;;22.90;5.10;;;18.20;47.90;;;;;;4964879;28;20083;-65
2021/10/18 13:08:06;;;;;;;19.33;4.68;;;18.20;47.90;;;;;;4948770;28;20102;-64
2021/10/18 13:10:38;;;;;;;29.92;6.47;;;17.90;65.60;;;;;;4964228;28;20441;-66
2021/10/18 13:13:07;;;;;;;22.63;4.93;;;18.20;48.70;;;;;;4964931;28;20072;-64
2021/10/18 13:15:34;;;;;;;17.95;4.90;;;18.20;49.00;;;;;;4950752;28;20514;-65
2021/10/18 13:18:01;;;;;;;19.50;5.53;;;18.20;49.40;;;;;;4952242;28;20088;-64
2021/10/18 13:20:28;;;;;;;24.80;5.38;;;18.30;49.60;;;;;;4936529;28;20096;-64
2021/10/18 13:23:00;;;;;;;24.70;5.07;;;17.90;61.70;;;;;;4968514;28;20095;-65
2021/10/18 13:25:30;;;;;;;19.05;5.13;;;18.20;49.90;;;;;;4968450;28;20076;-63
2021/10/18 13:27:57;;;;;;;18.52;4.70;;;18.20;50.10;;;;;;4968720;28;20086;-63
2021/10/18 13:30:25;;;;;;;19.38;4.28;;;18.20;50.30;;;;;;4954457;28;20577;-64
2021/10/18 13:32:53;;;;;;;21.40;4.10;;;18.10;50.40;;;;;;4952961;28;20539;-65
2021/10/18 13:35:20;;;;;;;20.92;4.30;;;18.10;50.60;;;;;;4953638;28;20091;-65
2021/10/18 13:37:47;;;;;;;25.27;5.18;;;18.40;67.70;;;;;;4967644;28;20194;-63
2021/10/18 13:40:15;;;;;;;18.80;4.63;;;18.30;86.10;;;;;;4937868;28;20995;-64
2021/10/18 13:42:45;;;;;;;17.13;4.10;;;17.80;92.20;;;;;;4950303;28;20076;-64
2021/10/18 13:45:16;;;;;;;27.45;4.45;;;19.80;53.20;;;;;;4951233;28;20135;-65
2021/10/18 13:47:42;;;;;;;17.88;4.30;;;18.20;50.90;;;;;;4950840;28;20079;-65
2021/10/18 13:50:08;;;;;;;;;;;18.30;50.90;;;;;;4921692;28;20512;-64
2021/10/18 13:52:35;;;;;;;19.95;3.92;;;18.30;50.70;;;;;;4951277;28;19958;-65
2021/10/18 13:55:03;;;;;;;19.85;3.65;;;18.30;50.50;;;;;;4953093;28;20075;-63